sensor_id;sensor_type;location;lat;lon;timestamp;temperature;humidity
59847;DHT22;45728;48.788;2.302;2024-01-06T00:01:42;6.50;99.90
59847;DHT22;45728;48.788;2.302;2024-01-06T00:04:08;6.50;99.90
59847;DHT22;45728;48.788;2.302;2024-01-06T00:06:34;6.40;99.90
59847;DHT22;45728;48.788;2.302;2024-01-06T00:09:01;6.40;99.90
59847;DHT22;45728;48.788;2.302;2024-01-06T00:11:27;6.40;99.90
59847;DHT22;45728;48.788;2.302;2024-01-06T00:13:53;6.40;99.90
59847;DHT22;45728;48.788;2.302;2024-01-06T00:16:19;6.30;99.90
59847;DHT22;45728;48.788;2.302;2024-01-06T00:18:46;6.30;99.90
59847;DHT22;45728;48.788;2.302;2024-01-06T00:21:13;6.30;99.90
59847;DHT22;45728;48.788;2.302;2024-01-06T00:23:42;6.30;99.90
59847;DHT22;45728;48.788;2.302;2024-01-06T00:26:10;6.20;99.90
59847;DHT22;45728;48.788;2.302;2024-01-06T00:28:38;6.20;99.90
59847;DHT22;45728;48.788;2.302;2024-01-06T00:31:06;6.20;99.90
59847;DHT22;45728;48.788;2.302;2024-01-06T00:33:32;6.20;99.90
59847;DHT22;45728;48.788;2.302;2024-01-06T00:35:58;6.20;99.90
59847;DHT22;45728;48.788;2.302;2024-01-06T00:38:24;6.10;99.90
59847;DHT22;45728;48.788;2.302;2024-01-06T00:40:50;6.10;99.90
59847;DHT22;45728;48.788;2.302;2024-01-06T00:43:16;6.10;99.90
59847;DHT22;45728;48.788;2.302;2024-01-06T00:45:42;6.10;99.90
59847;DHT22;45728;48.788;2.302;2024-01-06T00:48:08;6.20;99.90
59847;DHT22;45728;48.788;2.302;2024-01-06T00:50:34;6.20;99.90
59847;DHT22;45728;48.788;2.302;2024-01-06T00:53:00;6.20;99.90
59847;DHT22;45728;48.788;2.302;2024-01-06T00:55:26;6.10;99.90
59847;DHT22;45728;48.788;2.302;2024-01-06T00:57:53;6.10;99.90
59847;DHT22;45728;48.788;2.302;2024-01-06T01:00:19;6.20;99.90
59847;DHT22;45728;48.788;2.302;2024-01-06T01:02:45;6.20;99.90
59847;DHT22;45728;48.788;2.302;2024-01-06T01:05:11;6.10;99.90
59847;DHT22;45728;48.788;2.302;2024-01-06T01:07:37;6.10;99.90
59847;DHT22;45728;48.788;2.302;2024-01-06T01:10:03;6.10;99.90
59847;DHT22;45728;48.788;2.302;2024-01-06T01:12:30;6.10;99.90
59847;DHT22;45728;48.788;2.302;2024-01-06T01:14:56;6.10;99.90
59847;DHT22;45728;48.788;2.302;2024-01-06T01:17:22;6.10;99.90
59847;DHT22;45728;48.788;2.302;2024-01-06T01:19:48;6.20;99.90
59847;DHT22;45728;48.788;2.302;2024-01-06T01:22:14;6.10;99.90
59847;DHT22;45728;48.788;2.302;2024-01-06T01:24:41;6.10;99.90
59847;DHT22;45728;48.788;2.302;2024-01-06T01:27:07;6.00;99.90
59847;DHT22;45728;48.788;2.302;2024-01-06T01:29:34;6.00;99.90
59847;DHT22;45728;48.788;2.302;2024-01-06T01:32:00;5.90;99.90
59847;DHT22;45728;48.788;2.302;2024-01-06T01:34:26;6.00;99.90
59847;DHT22;45728;48.788;2.302;2024-01-06T01:36:52;5.90;99.90
59847;DHT22;45728;48.788;2.302;2024-01-06T01:39:18;5.90;99.90
59847;DHT22;45728;48.788;2.302;2024-01-06T01:41:44;5.90;99.90
59847;DHT22;45728;48.788;2.302;2024-01-06T01:44:10;5.90;99.90
59847;DHT22;45728;48.788;2.302;2024-01-06T01:46:36;5.90;99.90
59847;DHT22;45728;48.788;2.302;2024-01-06T01:49:04;5.80;99.90
59847;DHT22;45728;48.788;2.302;2024-01-06T01:51:32;5.80;99.90
59847;DHT22;45728;48.788;2.302;2024-01-06T01:54:01;5.80;99.90
59847;DHT22;45728;48.788;2.302;2024-01-06T01:56:30;5.80;99.90
59847;DHT22;45728;48.788;2.302;2024-01-06T01:59:06;5.70;99.90
59847;DHT22;45728;48.788;2.302;2024-01-06T02:01:35;5.70;99.90
59847;DHT22;45728;48.788;2.302;2024-01-06T02:04:01;5.60;99.90
59847;DHT22;45728;48.788;2.302;2024-01-06T02:06:27;5.60;99.90
59847;DHT22;45728;48.788;2.302;2024-01-06T02:08:53;5.60;99.90
59847;DHT22;45728;48.788;2.302;2024-01-06T02:11:19;5.60;99.90
59847;DHT22;45728;48.788;2.302;2024-01-06T02:13:46;5.60;99.90
59847;DHT22;45728;48.788;2.302;2024-01-06T02:16:12;5.60;99.90
59847;DHT22;45728;48.788;2.302;2024-01-06T02:18:38;5.50;99.90
59847;DHT22;45728;48.788;2.302;2024-01-06T02:21:05;5.50;99.90
59847;DHT22;45728;48.788;2.302;2024-01-06T02:23:35;5.50;99.90
59847;DHT22;45728;48.788;2.302;2024-01-06T02:26:01;5.40;99.90
59847;DHT22;45728;48.788;2.302;2024-01-06T02:28:27;5.30;99.90
59847;DHT22;45728;48.788;2.302;2024-01-06T02:30:53;5.30;99.90
59847;DHT22;45728;48.788;2.302;2024-01-06T02:33:19;5.40;99.90
59847;DHT22;45728;48.788;2.302;2024-01-06T02:35:46;5.40;99.90
59847;DHT22;45728;48.788;2.302;2024-01-06T02:38:12;5.40;99.90
59847;DHT22;45728;48.788;2.302;2024-01-06T02:40:38;5.30;99.90
59847;DHT22;45728;48.788;2.302;2024-01-06T02:43:04;5.40;99.90
59847;DHT22;45728;48.788;2.302;2024-01-06T02:45:30;5.40;99.90
59847;DHT22;45728;48.788;2.302;2024-01-06T02:47:56;5.50;99.90
59847;DHT22;45728;48.788;2.302;2024-01-06T02:50:22;5.60;99.90
59847;DHT22;45728;48.788;2.302;2024-01-06T02:52:48;5.60;99.90
59847;DHT22;45728;48.788;2.302;2024-01-06T02:55:14;5.70;99.90
59847;DHT22;45728;48.788;2.302;2024-01-06T02:57:40;5.70;99.90
59847;DHT22;45728;48.788;2.302;2024-01-06T03:00:08;5.70;99.90
59847;DHT22;45728;48.788;2.302;2024-01-06T03:02:34;5.80;99.90
59847;DHT22;45728;48.788;2.302;2024-01-06T03:05:02;5.80;99.90
59847;DHT22;45728;48.788;2.302;2024-01-06T03:07:28;5.80;99.90
59847;DHT22;45728;48.788;2.302;2024-01-06T03:09:54;5.90;99.90
59847;DHT22;45728;48.788;2.302;2024-01-06T03:12:20;5.90;99.90
59847;DHT22;45728;48.788;2.302;2024-01-06T03:14:46;5.90;99.90
59847;DHT22;45728;48.788;2.302;2024-01-06T03:17:12;5.90;99.90
59847;DHT22;45728;48.788;2.302;2024-01-06T03:19:39;5.90;99.90
59847;DHT22;45728;48.788;2.302;2024-01-06T03:22:05;5.90;99.90
59847;DHT22;45728;48.788;2.302;2024-01-06T03:24:31;5.90;99.90
59847;DHT22;45728;48.788;2.302;2024-01-06T03:26:57;6.00;99.90
59847;DHT22;45728;48.788;2.302;2024-01-06T03:29:23;6.00;99.90
59847;DHT22;45728;48.788;2.302;2024-01-06T03:31:49;6.00;99.90
59847;DHT22;45728;48.788;2.302;2024-01-06T03:34:15;6.00;99.90
59847;DHT22;45728;48.788;2.302;2024-01-06T03:36:41;6.00;99.90
59847;DHT22;45728;48.788;2.302;2024-01-06T03:39:07;6.00;99.90
59847;DHT22;45728;48.788;2.302;2024-01-06T03:41:34;6.00;99.90
59847;DHT22;45728;48.788;2.302;2024-01-06T03:44:00;6.00;99.90
59847;DHT22;45728;48.788;2.302;2024-01-06T03:46:27;6.00;99.90
59847;DHT22;45728;48.788;2.302;2024-01-06T03:48:53;6.00;99.90
59847;DHT22;45728;48.788;2.302;2024-01-06T03:51:19;6.00;99.90
59847;DHT22;45728;48.788;2.302;2024-01-06T03:53:45;6.00;99.90
59847;DHT22;45728;48.788;2.302;2024-01-06T03:56:13;6.00;99.90
59847;DHT22;45728;48.788;2.302;2024-01-06T03:58:39;6.00;99.90
59847;DHT22;45728;48.788;2.302;2024-01-06T04:01:05;6.00;99.90
59847;DHT22;45728;48.788;2.302;2024-01-06T04:03:31;6.00;99.90
59847;DHT22;45728;48.788;2.302;2024-01-06T04:05:57;6.00;99.90
59847;DHT22;45728;48.788;2.302;2024-01-06T04:08:23;6.10;99.90
59847;DHT22;45728;48.788;2.302;2024-01-06T04:10:49;6.10;99.90
59847;DHT22;45728;48.788;2.302;2024-01-06T04:13:15;6.10;99.90
59847;DHT22;45728;48.788;2.302;2024-01-06T04:15:41;6.10;99.90
59847;DHT22;45728;48.788;2.302;2024-01-06T04:18:07;6.20;99.90
59847;DHT22;45728;48.788;2.302;2024-01-06T04:20:35;6.10;99.90
59847;DHT22;45728;48.788;2.302;2024-01-06T04:23:02;6.10;99.90
59847;DHT22;45728;48.788;2.302;2024-01-06T04:25:28;6.10;99.90
59847;DHT22;45728;48.788;2.302;2024-01-06T04:27:54;6.10;99.90
59847;DHT22;45728;48.788;2.302;2024-01-06T04:30:20;6.10;99.90
59847;DHT22;45728;48.788;2.302;2024-01-06T04:32:46;6.10;99.90
59847;DHT22;45728;48.788;2.302;2024-01-06T04:35:14;6.10;99.90
59847;DHT22;45728;48.788;2.302;2024-01-06T04:37:40;6.10;99.90
59847;DHT22;45728;48.788;2.302;2024-01-06T04:40:07;6.10;99.90
59847;DHT22;45728;48.788;2.302;2024-01-06T04:42:34;6.10;99.90
59847;DHT22;45728;48.788;2.302;2024-01-06T04:45:00;6.10;99.90
59847;DHT22;45728;48.788;2.302;2024-01-06T04:47:26;6.10;99.90
59847;DHT22;45728;48.788;2.302;2024-01-06T04:49:53;6.10;99.90
59847;DHT22;45728;48.788;2.302;2024-01-06T04:52:19;6.10;99.90
59847;DHT22;45728;48.788;2.302;2024-01-06T04:54:45;6.10;99.90
59847;DHT22;45728;48.788;2.302;2024-01-06T04:57:11;6.10;99.90
59847;DHT22;45728;48.788;2.302;2024-01-06T04:59:37;6.10;99.90
59847;DHT22;45728;48.788;2.302;2024-01-06T05:02:04;6.20;99.90
59847;DHT22;45728;48.788;2.302;2024-01-06T05:04:30;6.20;99.90
59847;DHT22;45728;48.788;2.302;2024-01-06T05:06:58;6.20;99.90
59847;DHT22;45728;48.788;2.302;2024-01-06T05:09:25;6.20;99.90
59847;DHT22;45728;48.788;2.302;2024-01-06T05:11:51;6.20;99.90
59847;DHT22;45728;48.788;2.302;2024-01-06T05:14:17;6.20;99.90
59847;DHT22;45728;48.788;2.302;2024-01-06T05:16:44;6.20;99.90
59847;DHT22;45728;48.788;2.302;2024-01-06T05:19:10;6.30;99.90
59847;DHT22;45728;48.788;2.302;2024-01-06T05:21:36;6.20;99.90
59847;DHT22;45728;48.788;2.302;2024-01-06T05:24:02;6.20;99.90
59847;DHT22;45728;48.788;2.302;2024-01-06T05:26:29;6.20;99.90
59847;DHT22;45728;48.788;2.302;2024-01-06T05:28:55;6.20;99.90
59847;DHT22;45728;48.788;2.302;2024-01-06T05:31:21;6.30;99.90
59847;DHT22;45728;48.788;2.302;2024-01-06T05:33:47;6.20;99.90
59847;DHT22;45728;48.788;2.302;2024-01-06T05:36:13;6.20;99.90
59847;DHT22;45728;48.788;2.302;2024-01-06T05:38:39;6.30;99.90
59847;DHT22;45728;48.788;2.302;2024-01-06T05:41:05;6.20;99.90
59847;DHT22;45728;48.788;2.302;2024-01-06T05:43:31;6.20;99.90
59847;DHT22;45728;48.788;2.302;2024-01-06T05:45:57;6.20;99.90
59847;DHT22;45728;48.788;2.302;2024-01-06T05:48:23;6.20;99.90
59847;DHT22;45728;48.788;2.302;2024-01-06T05:50:49;6.10;99.90
59847;DHT22;45728;48.788;2.302;2024-01-06T05:53:15;6.10;99.90
59847;DHT22;45728;48.788;2.302;2024-01-06T05:55:44;6.10;99.90
59847;DHT22;45728;48.788;2.302;2024-01-06T05:58:10;6.00;99.90
59847;DHT22;45728;48.788;2.302;2024-01-06T06:00:36;6.00;99.90
59847;DHT22;45728;48.788;2.302;2024-01-06T06:03:02;5.90;99.90
59847;DHT22;45728;48.788;2.302;2024-01-06T06:05:28;5.90;99.90
59847;DHT22;45728;48.788;2.302;2024-01-06T06:07:54;5.90;99.90
59847;DHT22;45728;48.788;2.302;2024-01-06T06:10:20;5.90;99.90
59847;DHT22;45728;48.788;2.302;2024-01-06T06:12:46;5.90;99.90
59847;DHT22;45728;48.788;2.302;2024-01-06T06:15:13;5.90;99.90
59847;DHT22;45728;48.788;2.302;2024-01-06T06:17:39;5.90;99.90
59847;DHT22;45728;48.788;2.302;2024-01-06T06:20:05;5.90;99.90
59847;DHT22;45728;48.788;2.302;2024-01-06T06:22:34;5.90;99.90
59847;DHT22;45728;48.788;2.302;2024-01-06T06:25:01;5.80;99.90
59847;DHT22;45728;48.788;2.302;2024-01-06T06:27:27;5.80;99.90
59847;DHT22;45728;48.788;2.302;2024-01-06T06:29:54;5.80;99.90
59847;DHT22;45728;48.788;2.302;2024-01-06T06:32:20;5.80;99.90
59847;DHT22;45728;48.788;2.302;2024-01-06T06:34:46;5.80;99.90
59847;DHT22;45728;48.788;2.302;2024-01-06T06:37:12;5.80;99.90
59847;DHT22;45728;48.788;2.302;2024-01-06T06:39:38;5.80;99.90
59847;DHT22;45728;48.788;2.302;2024-01-06T06:42:04;5.80;99.90
59847;DHT22;45728;48.788;2.302;2024-01-06T06:44:30;5.80;99.90
59847;DHT22;45728;48.788;2.302;2024-01-06T06:46:57;5.70;99.90
59847;DHT22;45728;48.788;2.302;2024-01-06T06:49:23;5.70;99.90
59847;DHT22;45728;48.788;2.302;2024-01-06T06:51:49;5.80;99.90
59847;DHT22;45728;48.788;2.302;2024-01-06T06:54:15;5.80;99.90
59847;DHT22;45728;48.788;2.302;2024-01-06T06:56:42;5.90;99.90
59847;DHT22;45728;48.788;2.302;2024-01-06T06:59:09;5.90;99.90
59847;DHT22;45728;48.788;2.302;2024-01-06T07:01:35;5.90;99.90
59847;DHT22;45728;48.788;2.302;2024-01-06T07:04:02;5.90;99.90
59847;DHT22;45728;48.788;2.302;2024-01-06T07:06:29;5.90;99.90
59847;DHT22;45728;48.788;2.302;2024-01-06T07:08:55;5.90;99.90
59847;DHT22;45728;48.788;2.302;2024-01-06T07:11:23;5.90;99.90
59847;DHT22;45728;48.788;2.302;2024-01-06T07:13:50;6.00;99.90
59847;DHT22;45728;48.788;2.302;2024-01-06T07:16:16;6.00;99.90
59847;DHT22;45728;48.788;2.302;2024-01-06T07:18:42;6.00;99.90
59847;DHT22;45728;48.788;2.302;2024-01-06T07:21:08;6.00;99.90
59847;DHT22;45728;48.788;2.302;2024-01-06T07:23:34;6.00;99.90
59847;DHT22;45728;48.788;2.302;2024-01-06T07:26:01;6.00;99.90
59847;DHT22;45728;48.788;2.302;2024-01-06T07:28:27;6.00;99.90
59847;DHT22;45728;48.788;2.302;2024-01-06T07:30:53;6.00;99.90
59847;DHT22;45728;48.788;2.302;2024-01-06T07:33:19;6.00;99.90
59847;DHT22;45728;48.788;2.302;2024-01-06T07:35:46;6.10;99.90
59847;DHT22;45728;48.788;2.302;2024-01-06T07:38:13;6.10;99.90
59847;DHT22;45728;48.788;2.302;2024-01-06T07:40:39;6.20;99.90
59847;DHT22;45728;48.788;2.302;2024-01-06T07:43:05;6.20;99.90
59847;DHT22;45728;48.788;2.302;2024-01-06T07:45:32;6.20;99.90
59847;DHT22;45728;48.788;2.302;2024-01-06T07:48:01;6.20;99.90
59847;DHT22;45728;48.788;2.302;2024-01-06T07:50:27;6.30;99.90
59847;DHT22;45728;48.788;2.302;2024-01-06T07:52:54;6.30;99.90
59847;DHT22;45728;48.788;2.302;2024-01-06T07:55:20;6.20;99.90
59847;DHT22;45728;48.788;2.302;2024-01-06T07:57:46;6.20;99.90
59847;DHT22;45728;48.788;2.302;2024-01-06T08:00:12;6.10;99.90
59847;DHT22;45728;48.788;2.302;2024-01-06T08:02:42;6.10;99.90
59847;DHT22;45728;48.788;2.302;2024-01-06T08:05:08;6.20;99.90
59847;DHT22;45728;48.788;2.302;2024-01-06T08:07:34;6.20;99.90
59847;DHT22;45728;48.788;2.302;2024-01-06T08:10:00;6.20;99.90
59847;DHT22;45728;48.788;2.302;2024-01-06T08:12:26;6.30;99.90
59847;DHT22;45728;48.788;2.302;2024-01-06T08:14:52;6.30;99.90
59847;DHT22;45728;48.788;2.302;2024-01-06T08:17:18;6.30;99.90
59847;DHT22;45728;48.788;2.302;2024-01-06T08:19:44;6.20;99.90
59847;DHT22;45728;48.788;2.302;2024-01-06T08:22:13;6.20;99.90
59847;DHT22;45728;48.788;2.302;2024-01-06T08:24:39;6.20;99.90
59847;DHT22;45728;48.788;2.302;2024-01-06T08:27:05;6.20;99.90
59847;DHT22;45728;48.788;2.302;2024-01-06T08:29:31;6.20;99.90
59847;DHT22;45728;48.788;2.302;2024-01-06T08:31:57;6.10;99.90
59847;DHT22;45728;48.788;2.302;2024-01-06T08:34:23;6.10;99.90
59847;DHT22;45728;48.788;2.302;2024-01-06T08:36:49;6.10;99.90
59847;DHT22;45728;48.788;2.302;2024-01-06T08:39:16;6.10;99.90
59847;DHT22;45728;48.788;2.302;2024-01-06T08:41:42;6.10;99.90
59847;DHT22;45728;48.788;2.302;2024-01-06T08:44:09;6.10;99.90
59847;DHT22;45728;48.788;2.302;2024-01-06T08:46:35;6.10;99.90
59847;DHT22;45728;48.788;2.302;2024-01-06T08:49:01;6.10;99.90
59847;DHT22;45728;48.788;2.302;2024-01-06T08:51:27;6.10;99.90
59847;DHT22;45728;48.788;2.302;2024-01-06T08:53:53;6.10;99.90
59847;DHT22;45728;48.788;2.302;2024-01-06T08:56:20;6.10;99.90
59847;DHT22;45728;48.788;2.302;2024-01-06T08:58:46;6.10;99.90
59847;DHT22;45728;48.788;2.302;2024-01-06T09:01:12;6.10;99.90
59847;DHT22;45728;48.788;2.302;2024-01-06T09:03:39;6.10;99.90
59847;DHT22;45728;48.788;2.302;2024-01-06T09:06:05;6.10;99.90
59847;DHT22;45728;48.788;2.302;2024-01-06T09:08:31;6.10;99.90
59847;DHT22;45728;48.788;2.302;2024-01-06T09:10:57;6.20;99.90
59847;DHT22;45728;48.788;2.302;2024-01-06T09:13:24;6.20;99.90
59847;DHT22;45728;48.788;2.302;2024-01-06T09:15:51;6.20;99.90
59847;DHT22;45728;48.788;2.302;2024-01-06T09:18:17;6.30;99.90
59847;DHT22;45728;48.788;2.302;2024-01-06T09:20:43;6.30;99.90
59847;DHT22;45728;48.788;2.302;2024-01-06T09:23:09;6.30;99.90
59847;DHT22;45728;48.788;2.302;2024-01-06T09:25:38;6.30;99.90
59847;DHT22;45728;48.788;2.302;2024-01-06T09:28:05;6.30;99.90
59847;DHT22;45728;48.788;2.302;2024-01-06T09:30:32;6.40;99.90
59847;DHT22;45728;48.788;2.302;2024-01-06T09:32:58;6.40;99.90
59847;DHT22;45728;48.788;2.302;2024-01-06T09:35:24;6.50;99.90
59847;DHT22;45728;48.788;2.302;2024-01-06T09:37:50;6.50;99.90
59847;DHT22;45728;48.788;2.302;2024-01-06T09:40:21;6.50;99.90
59847;DHT22;45728;48.788;2.302;2024-01-06T09:42:49;6.50;99.90
59847;DHT22;45728;48.788;2.302;2024-01-06T09:45:15;6.50;99.90
59847;DHT22;45728;48.788;2.302;2024-01-06T09:47:41;6.70;99.90
59847;DHT22;45728;48.788;2.302;2024-01-06T09:50:12;6.80;99.90
59847;DHT22;45728;48.788;2.302;2024-01-06T09:52:40;6.90;99.90
59847;DHT22;45728;48.788;2.302;2024-01-06T09:55:12;7.10;99.90
59847;DHT22;45728;48.788;2.302;2024-01-06T09:57:38;7.30;99.90
59847;DHT22;45728;48.788;2.302;2024-01-06T10:00:06;7.00;99.90
59847;DHT22;45728;48.788;2.302;2024-01-06T10:02:34;6.90;99.90
59847;DHT22;45728;48.788;2.302;2024-01-06T10:05:00;6.90;99.90
59847;DHT22;45728;48.788;2.302;2024-01-06T10:07:26;6.80;99.90
59847;DHT22;45728;48.788;2.302;2024-01-06T10:09:54;6.80;99.90
59847;DHT22;45728;48.788;2.302;2024-01-06T10:12:24;6.90;99.90
59847;DHT22;45728;48.788;2.302;2024-01-06T10:14:51;6.90;99.90
59847;DHT22;45728;48.788;2.302;2024-01-06T10:17:18;6.90;99.90
59847;DHT22;45728;48.788;2.302;2024-01-06T10:19:46;6.90;99.90
59847;DHT22;45728;48.788;2.302;2024-01-06T10:22:12;7.00;99.90
59847;DHT22;45728;48.788;2.302;2024-01-06T10:24:38;7.10;99.90
59847;DHT22;45728;48.788;2.302;2024-01-06T10:27:04;7.00;99.90
59847;DHT22;45728;48.788;2.302;2024-01-06T10:29:30;7.00;99.90
59847;DHT22;45728;48.788;2.302;2024-01-06T10:31:57;7.10;99.90
59847;DHT22;45728;48.788;2.302;2024-01-06T10:34:24;7.10;99.90
59847;DHT22;45728;48.788;2.302;2024-01-06T10:36:50;7.10;99.90
59847;DHT22;45728;48.788;2.302;2024-01-06T10:39:20;7.20;99.90
59847;DHT22;45728;48.788;2.302;2024-01-06T10:41:50;7.20;99.90
59847;DHT22;45728;48.788;2.302;2024-01-06T10:44:18;7.20;99.90
59847;DHT22;45728;48.788;2.302;2024-01-06T10:46:45;7.20;99.90
59847;DHT22;45728;48.788;2.302;2024-01-06T10:49:14;7.20;99.90
59847;DHT22;45728;48.788;2.302;2024-01-06T10:51:41;7.20;99.90
59847;DHT22;45728;48.788;2.302;2024-01-06T10:54:09;7.10;99.90
59847;DHT22;45728;48.788;2.302;2024-01-06T10:56:38;7.20;99.90
59847;DHT22;45728;48.788;2.302;2024-01-06T10:59:04;7.10;99.90
59847;DHT22;45728;48.788;2.302;2024-01-06T11:01:33;7.10;99.90
59847;DHT22;45728;48.788;2.302;2024-01-06T11:04:00;7.10;99.90
59847;DHT22;45728;48.788;2.302;2024-01-06T11:06:28;7.20;99.90
59847;DHT22;45728;48.788;2.302;2024-01-06T11:09:09;7.20;99.90
59847;DHT22;45728;48.788;2.302;2024-01-06T11:11:37;7.20;99.90
59847;DHT22;45728;48.788;2.302;2024-01-06T11:14:19;7.10;99.90
59847;DHT22;45728;48.788;2.302;2024-01-06T11:16:46;7.10;99.90
59847;DHT22;45728;48.788;2.302;2024-01-06T11:22:27;7.20;99.90
59847;DHT22;45728;48.788;2.302;2024-01-06T11:24:56;7.20;99.90
59847;DHT22;45728;48.788;2.302;2024-01-06T11:27:27;7.30;99.90
59847;DHT22;45728;48.788;2.302;2024-01-06T11:29:57;7.30;99.90
59847;DHT22;45728;48.788;2.302;2024-01-06T11:32:29;7.30;99.90
59847;DHT22;45728;48.788;2.302;2024-01-06T11:35:08;7.40;99.90
59847;DHT22;45728;48.788;2.302;2024-01-06T11:40:15;7.60;99.90
59847;DHT22;45728;48.788;2.302;2024-01-06T11:42:48;7.60;99.90
59847;DHT22;45728;48.788;2.302;2024-01-06T11:45:14;7.60;99.90
59847;DHT22;45728;48.788;2.302;2024-01-06T11:47:47;7.80;99.90
59847;DHT22;45728;48.788;2.302;2024-01-06T11:50:14;8.00;99.90
59847;DHT22;45728;48.788;2.302;2024-01-06T11:52:40;8.00;99.90
59847;DHT22;45728;48.788;2.302;2024-01-06T11:55:07;7.90;99.90
59847;DHT22;45728;48.788;2.302;2024-01-06T11:57:35;7.90;99.90
59847;DHT22;45728;48.788;2.302;2024-01-06T12:00:01;8.00;99.90
59847;DHT22;45728;48.788;2.302;2024-01-06T12:02:30;7.70;99.90
59847;DHT22;45728;48.788;2.302;2024-01-06T12:04:56;7.60;99.90
59847;DHT22;45728;48.788;2.302;2024-01-06T12:07:22;7.40;99.90
59847;DHT22;45728;48.788;2.302;2024-01-06T12:09:49;7.50;99.90
59847;DHT22;45728;48.788;2.302;2024-01-06T12:12:16;7.50;99.90
59847;DHT22;45728;48.788;2.302;2024-01-06T12:14:42;7.60;99.90
59847;DHT22;45728;48.788;2.302;2024-01-06T12:17:09;7.70;99.90
59847;DHT22;45728;48.788;2.302;2024-01-06T12:19:35;7.70;99.90
59847;DHT22;45728;48.788;2.302;2024-01-06T12:22:02;7.70;99.90
59847;DHT22;45728;48.788;2.302;2024-01-06T12:24:28;7.70;99.90
59847;DHT22;45728;48.788;2.302;2024-01-06T12:26:56;7.80;99.90
59847;DHT22;45728;48.788;2.302;2024-01-06T12:29:26;7.90;99.90
59847;DHT22;45728;48.788;2.302;2024-01-06T12:31:55;8.00;99.90
59847;DHT22;45728;48.788;2.302;2024-01-06T12:34:21;7.90;99.90
59847;DHT22;45728;48.788;2.302;2024-01-06T12:36:47;7.90;99.90
59847;DHT22;45728;48.788;2.302;2024-01-06T12:39:18;7.80;99.90
59847;DHT22;45728;48.788;2.302;2024-01-06T12:41:44;7.80;99.90
59847;DHT22;45728;48.788;2.302;2024-01-06T12:44:10;7.80;99.90
59847;DHT22;45728;48.788;2.302;2024-01-06T12:46:37;7.70;99.90
59847;DHT22;45728;48.788;2.302;2024-01-06T12:49:03;7.60;99.90
59847;DHT22;45728;48.788;2.302;2024-01-06T12:51:29;7.70;99.90
59847;DHT22;45728;48.788;2.302;2024-01-06T12:53:55;7.60;99.90
59847;DHT22;45728;48.788;2.302;2024-01-06T12:56:21;7.60;99.90
59847;DHT22;45728;48.788;2.302;2024-01-06T12:58:47;7.60;99.90
59847;DHT22;45728;48.788;2.302;2024-01-06T13:01:13;7.60;99.90
59847;DHT22;45728;48.788;2.302;2024-01-06T13:03:39;7.70;99.90
59847;DHT22;45728;48.788;2.302;2024-01-06T13:06:05;7.60;99.90
59847;DHT22;45728;48.788;2.302;2024-01-06T13:08:32;7.60;99.90
59847;DHT22;45728;48.788;2.302;2024-01-06T13:10:58;7.60;99.90
59847;DHT22;45728;48.788;2.302;2024-01-06T13:13:24;7.60;99.90
59847;DHT22;45728;48.788;2.302;2024-01-06T13:15:50;7.50;99.90
59847;DHT22;45728;48.788;2.302;2024-01-06T13:18:16;7.60;99.90
59847;DHT22;45728;48.788;2.302;2024-01-06T13:20:45;7.60;99.90
59847;DHT22;45728;48.788;2.302;2024-01-06T13:23:12;7.70;99.90
59847;DHT22;45728;48.788;2.302;2024-01-06T13:25:38;7.70;99.90
59847;DHT22;45728;48.788;2.302;2024-01-06T13:28:07;7.70;99.90
59847;DHT22;45728;48.788;2.302;2024-01-06T13:30:33;7.70;99.90
59847;DHT22;45728;48.788;2.302;2024-01-06T13:33:00;7.60;99.90
59847;DHT22;45728;48.788;2.302;2024-01-06T13:35:26;7.60;99.90
59847;DHT22;45728;48.788;2.302;2024-01-06T13:37:52;7.60;99.90
59847;DHT22;45728;48.788;2.302;2024-01-06T13:40:19;7.50;99.90
59847;DHT22;45728;48.788;2.302;2024-01-06T13:42:47;7.60;99.90
59847;DHT22;45728;48.788;2.302;2024-01-06T13:45:13;7.70;99.90
59847;DHT22;45728;48.788;2.302;2024-01-06T13:47:39;7.70;99.90
59847;DHT22;45728;48.788;2.302;2024-01-06T13:50:12;7.70;99.90
59847;DHT22;45728;48.788;2.302;2024-01-06T13:52:38;7.60;99.90
59847;DHT22;45728;48.788;2.302;2024-01-06T13:55:05;7.60;99.90
59847;DHT22;45728;48.788;2.302;2024-01-06T13:57:32;7.60;99.90
59847;DHT22;45728;48.788;2.302;2024-01-06T13:59:58;7.70;99.90
59847;DHT22;45728;48.788;2.302;2024-01-06T14:02:24;7.70;99.90
59847;DHT22;45728;48.788;2.302;2024-01-06T14:04:51;7.70;99.90
59847;DHT22;45728;48.788;2.302;2024-01-06T14:07:18;7.60;99.90
59847;DHT22;45728;48.788;2.302;2024-01-06T14:09:45;7.70;99.90
59847;DHT22;45728;48.788;2.302;2024-01-06T14:12:11;7.60;99.90
59847;DHT22;45728;48.788;2.302;2024-01-06T14:14:39;7.60;99.90
59847;DHT22;45728;48.788;2.302;2024-01-06T14:17:07;7.60;99.90
59847;DHT22;45728;48.788;2.302;2024-01-06T14:19:34;7.60;99.90
59847;DHT22;45728;48.788;2.302;2024-01-06T14:22:00;7.60;99.90
59847;DHT22;45728;48.788;2.302;2024-01-06T14:24:26;7.60;99.90
59847;DHT22;45728;48.788;2.302;2024-01-06T14:26:53;7.50;99.90
59847;DHT22;45728;48.788;2.302;2024-01-06T14:29:21;7.50;99.90
59847;DHT22;45728;48.788;2.302;2024-01-06T14:31:48;7.50;99.90
59847;DHT22;45728;48.788;2.302;2024-01-06T14:34:14;7.50;99.90
59847;DHT22;45728;48.788;2.302;2024-01-06T14:36:40;7.50;99.90
59847;DHT22;45728;48.788;2.302;2024-01-06T14:39:16;7.50;99.90
59847;DHT22;45728;48.788;2.302;2024-01-06T14:41:42;7.50;99.90
59847;DHT22;45728;48.788;2.302;2024-01-06T14:44:08;7.50;99.90
59847;DHT22;45728;48.788;2.302;2024-01-06T14:46:35;7.50;99.90
59847;DHT22;45728;48.788;2.302;2024-01-06T14:49:03;7.50;99.90
59847;DHT22;45728;48.788;2.302;2024-01-06T14:51:29;7.40;99.90
59847;DHT22;45728;48.788;2.302;2024-01-06T14:53:55;7.40;99.90
59847;DHT22;45728;48.788;2.302;2024-01-06T14:56:23;7.40;99.90
59847;DHT22;45728;48.788;2.302;2024-01-06T14:58:50;7.40;99.90
59847;DHT22;45728;48.788;2.302;2024-01-06T15:01:16;7.40;99.90
59847;DHT22;45728;48.788;2.302;2024-01-06T15:03:43;7.40;99.90
59847;DHT22;45728;48.788;2.302;2024-01-06T15:06:09;7.40;99.90
59847;DHT22;45728;48.788;2.302;2024-01-06T15:08:35;7.40;99.90
59847;DHT22;45728;48.788;2.302;2024-01-06T15:11:01;7.40;99.90
59847;DHT22;45728;48.788;2.302;2024-01-06T15:13:29;7.40;99.90
59847;DHT22;45728;48.788;2.302;2024-01-06T15:15:55;7.40;99.90
59847;DHT22;45728;48.788;2.302;2024-01-06T15:18:21;7.40;99.90
59847;DHT22;45728;48.788;2.302;2024-01-06T15:20:47;7.40;99.90
59847;DHT22;45728;48.788;2.302;2024-01-06T15:23:13;7.40;99.90
59847;DHT22;45728;48.788;2.302;2024-01-06T15:25:39;7.40;99.90
59847;DHT22;45728;48.788;2.302;2024-01-06T15:28:05;7.40;99.90
59847;DHT22;45728;48.788;2.302;2024-01-06T15:30:31;7.30;99.90
59847;DHT22;45728;48.788;2.302;2024-01-06T15:32:57;7.30;99.90
59847;DHT22;45728;48.788;2.302;2024-01-06T15:35:23;7.30;99.90
59847;DHT22;45728;48.788;2.302;2024-01-06T15:37:49;7.30;99.90
59847;DHT22;45728;48.788;2.302;2024-01-06T15:40:15;7.30;99.90
59847;DHT22;45728;48.788;2.302;2024-01-06T15:42:42;7.30;99.90
59847;DHT22;45728;48.788;2.302;2024-01-06T15:45:09;7.30;99.90
59847;DHT22;45728;48.788;2.302;2024-01-06T15:47:38;7.20;99.90